createdAt,value
2019-05-02T00:00:58.431Z,16.60
2019-05-02T00:03:28.751Z,18.67
2019-05-02T00:05:57.770Z,16.63
2019-05-02T00:08:29.344Z,17.73
2019-05-02T00:10:58.400Z,18.53
2019-05-02T00:13:27.405Z,18.90
2019-05-02T00:15:56.339Z,18.73
2019-05-02T00:18:26.604Z,18.67
2019-05-02T00:20:57.190Z,18.83
2019-05-02T00:23:28.033Z,18.07
2019-05-02T00:25:56.610Z,16.37
2019-05-02T00:28:25.426Z,19.30
2019-05-02T00:30:54.572Z,18.62
2019-05-02T00:33:23.385Z,19.53
2019-05-02T00:35:52.120Z,18.13
2019-05-02T00:38:20.891Z,19.55
2019-05-02T00:40:49.618Z,18.27
2019-05-02T00:43:18.407Z,19.57
2019-05-02T00:45:47.261Z,18.57
2019-05-02T00:48:19.272Z,19.13
2019-05-02T00:50:50.929Z,17.80
2019-05-02T00:53:18.656Z,19.25
2019-05-02T00:55:47.442Z,20.50
2019-05-02T00:58:16.193Z,20.05
2019-05-02T01:00:53.142Z,19.10
2019-05-02T01:03:23.019Z,17.67
2019-05-02T01:05:52.009Z,19.37
2019-05-02T01:08:20.762Z,19.37
2019-05-02T01:10:52.172Z,17.93
2019-05-02T01:13:20.407Z,20.10
2019-05-02T01:15:49.296Z,18.07
2019-05-02T01:18:19.625Z,21.02
2019-05-02T01:20:48.369Z,19.63
2019-05-02T01:23:17.147Z,20.53
2019-05-02T01:25:47.204Z,21.00
2019-05-02T01:28:23.988Z,22.13
2019-05-02T01:31:06.329Z,20.77
2019-05-02T01:33:41.630Z,20.13
2019-05-02T01:36:12.202Z,20.50
2019-05-02T01:38:45.558Z,20.47
2019-05-02T01:41:14.333Z,19.57
2019-05-02T01:43:43.083Z,19.23
2019-05-02T01:46:11.866Z,20.00
2019-05-02T01:48:45.740Z,18.00
2019-05-02T01:51:12.109Z,16.32
2019-05-02T01:53:40.958Z,17.53
2019-05-02T01:56:09.734Z,18.80
2019-05-02T01:58:38.483Z,19.00
2019-05-02T02:01:07.361Z,21.13
2019-05-02T02:03:40.487Z,19.00
2019-05-02T02:06:08.066Z,17.43
2019-05-02T02:08:37.107Z,19.60
2019-05-02T02:11:05.881Z,18.50
2019-05-02T02:13:36.446Z,17.40
2019-05-02T02:16:05.931Z,19.30
2019-05-02T02:18:36.373Z,17.87
2019-05-02T02:21:20.014Z,17.97
2019-05-02T02:23:53.596Z,18.90
2019-05-02T02:26:24.027Z,18.40
2019-05-02T02:28:52.776Z,18.07
2019-05-02T02:31:22.345Z,18.30
2019-05-02T02:33:51.126Z,17.77
2019-05-02T02:36:29.529Z,16.93
2019-05-02T02:38:50.475Z,17.60
2019-05-02T02:41:19.237Z,15.98
2019-05-02T02:43:54.633Z,16.37
2019-05-02T02:46:21.677Z,17.60
2019-05-02T02:48:50.430Z,19.10
2019-05-02T02:51:23.812Z,16.40
2019-05-02T02:53:49.677Z,17.63
2019-05-02T02:56:18.465Z,15.73
2019-05-02T02:58:47.976Z,15.57
2019-05-02T03:01:27.290Z,18.75
2019-05-02T03:03:47.840Z,15.50
2019-05-02T03:06:16.587Z,17.35
2019-05-02T03:08:48.846Z,16.00
2019-05-02T03:11:23.238Z,16.23
2019-05-02T03:13:53.911Z,15.20
2019-05-02T03:16:24.513Z,14.33
2019-05-02T03:18:53.248Z,18.37
2019-05-02T03:21:22.623Z,17.17
2019-05-02T03:24:01.421Z,15.10
2019-05-02T03:26:22.150Z,16.77
2019-05-02T03:28:57.232Z,16.90
2019-05-02T03:31:25.277Z,16.33
2019-05-02T03:33:56.286Z,17.60
2019-05-02T03:36:35.483Z,15.27
2019-05-02T03:38:53.510Z,16.13
2019-05-02T03:41:23.641Z,16.93
2019-05-02T03:44:10.001Z,18.27
2019-05-02T03:46:23.237Z,17.32
2019-05-02T03:48:51.992Z,22.20
2019-05-02T03:51:24.707Z,20.72
2019-05-02T03:53:51.397Z,19.47
2019-05-02T03:56:20.180Z,19.57
2019-05-02T03:58:56.007Z,18.50
2019-05-02T04:01:20.186Z,22.90
2019-05-02T04:03:48.936Z,21.87
2019-05-02T04:06:20.961Z,18.40
2019-05-02T04:08:59.142Z,21.23
2019-05-02T04:11:22.894Z,25.17
2019-05-02T04:13:52.936Z,22.00
2019-05-02T04:16:22.794Z,19.80
2019-05-02T04:18:55.707Z,20.53
2019-05-02T04:21:25.915Z,19.83
2019-05-02T04:23:53.239Z,21.53
2019-05-02T04:26:21.977Z,20.45
2019-05-02T04:28:51.782Z,20.15
2019-05-02T04:31:24.904Z,19.70
2019-05-02T04:33:59.614Z,21.02
2019-05-02T04:36:28.463Z,21.60
2019-05-02T04:38:59.553Z,22.30
2019-05-02T04:41:29.268Z,17.20
2019-05-02T04:44:01.384Z,21.57
2019-05-02T04:46:31.184Z,21.75
2019-05-02T04:48:59.320Z,20.00
2019-05-02T04:51:31.797Z,23.60
2019-05-02T04:53:58.969Z,22.73
2019-05-02T04:56:28.513Z,23.60
2019-05-02T04:58:59.276Z,19.70
2019-05-02T05:01:33.144Z,23.27
2019-05-02T05:04:03.164Z,23.33
2019-05-02T05:06:29.001Z,14.20
2019-05-02T05:09:04.047Z,25.95
2019-05-02T05:11:28.519Z,26.27
2019-05-02T05:14:07.139Z,27.40
2019-05-02T05:16:37.283Z,26.60
2019-05-02T05:19:07.616Z,27.47
2019-05-02T05:21:37.402Z,25.80
2019-05-02T05:24:07.835Z,25.47
2019-05-02T05:26:42.745Z,22.93
2019-05-02T05:29:08.725Z,25.65
2019-05-02T05:31:38.219Z,25.20
2019-05-02T05:34:09.798Z,28.70
2019-05-02T05:36:39.991Z,24.77
2019-05-02T05:39:12.002Z,25.30
2019-05-02T05:41:42.654Z,26.77
2019-05-02T05:44:11.426Z,26.70
2019-05-02T05:46:42.517Z,24.00
2019-05-02T05:49:18.338Z,25.37
2019-05-02T05:51:41.329Z,24.77
2019-05-02T05:54:10.136Z,22.87
2019-05-02T05:56:42.900Z,29.20
2019-05-02T05:59:10.376Z,25.40
2019-05-02T06:01:39.401Z,23.20
2019-05-02T06:04:13.821Z,24.10
2019-05-02T06:06:43.562Z,27.20
2019-05-02T06:09:13.973Z,24.02
2019-05-02T06:11:43.071Z,26.43
2019-05-02T06:14:11.849Z,26.03
2019-05-02T06:16:40.706Z,27.73
2019-05-02T06:19:12.986Z,27.42
2019-05-02T06:21:44.824Z,27.27
2019-05-02T06:24:10.978Z,27.47
2019-05-02T06:26:39.893Z,28.47
2019-05-02T06:29:13.081Z,26.27
2019-05-02T06:31:43.092Z,27.23
2019-05-02T06:34:09.611Z,25.90
2019-05-02T06:36:38.391Z,28.53
2019-05-02T06:39:07.849Z,28.15
2019-05-02T06:41:36.590Z,27.50
2019-05-02T06:44:05.499Z,25.30
2019-05-02T06:46:34.302Z,27.77
2019-05-02T06:49:03.075Z,27.03
2019-05-02T06:51:31.889Z,27.87
2019-05-02T06:54:00.643Z,25.87
2019-05-02T06:56:29.441Z,26.40
2019-05-02T06:58:58.409Z,24.07
2019-05-02T07:01:27.290Z,25.60
2019-05-02T07:03:56.170Z,24.43
2019-05-02T07:06:25.422Z,25.83
2019-05-02T07:08:54.470Z,28.07
2019-05-02T07:11:23.314Z,24.17
2019-05-02T07:13:52.113Z,26.53
2019-05-02T07:16:37.167Z,28.57
2019-05-02T07:19:00.271Z,24.77
2019-05-02T07:21:29.159Z,26.60
2019-05-02T07:23:57.924Z,24.60
2019-05-02T07:26:26.680Z,26.23
2019-05-02T07:28:55.470Z,25.87
2019-05-02T07:31:24.214Z,24.43
2019-05-02T07:33:53.051Z,26.43
2019-05-02T07:36:21.798Z,24.98
2019-05-02T07:38:50.546Z,26.77
2019-05-02T07:41:19.358Z,26.57
2019-05-02T07:43:52.115Z,28.90
2019-05-02T07:46:21.000Z,26.30
2019-05-02T07:48:54.445Z,22.37
2019-05-02T07:51:22.814Z,25.88
2019-05-02T07:53:51.530Z,26.67
2019-05-02T07:56:20.317Z,29.27
2019-05-02T07:58:49.074Z,26.67
2019-05-02T08:01:17.874Z,25.50
2019-05-02T08:03:46.627Z,25.87
2019-05-02T08:06:15.386Z,27.60
2019-05-02T08:08:44.154Z,27.10
2019-05-02T08:11:13.065Z,27.67
2019-05-02T08:13:41.865Z,28.90
2019-05-02T08:16:10.654Z,28.02
2019-05-02T08:18:39.461Z,28.73
2019-05-02T08:21:08.298Z,25.57
2019-05-02T08:23:37.078Z,32.63
2019-05-02T08:26:05.972Z,29.77
2019-05-02T08:28:39.088Z,28.03
2019-05-02T08:31:07.971Z,26.17
2019-05-02T08:33:36.718Z,28.87
2019-05-02T08:36:05.513Z,26.00
2019-05-02T08:38:34.344Z,27.87
2019-05-02T08:41:03.096Z,26.65
2019-05-02T08:43:31.844Z,28.20
2019-05-02T08:46:00.721Z,28.10
2019-05-02T08:48:29.463Z,28.20
2019-05-02T08:50:58.424Z,29.63
2019-05-02T08:53:27.167Z,29.37
2019-05-02T08:55:55.926Z,28.13
2019-05-02T08:58:24.769Z,29.47
2019-05-02T09:00:53.576Z,29.77
2019-05-02T09:03:22.326Z,26.25
2019-05-02T09:05:51.069Z,30.50
2019-05-02T09:08:19.840Z,29.87
2019-05-02T09:10:48.606Z,26.33
2019-05-02T09:13:23.498Z,26.10
2019-05-02T09:15:51.314Z,26.60
2019-05-02T09:18:18.643Z,26.83
2019-05-02T09:20:52.577Z,28.67
2019-05-02T09:23:18.112Z,24.70
2019-05-02T09:25:46.867Z,26.77
2019-05-02T09:28:17.177Z,28.95
2019-05-02T09:30:46.850Z,28.47
2019-05-02T09:33:15.757Z,24.10
2019-05-02T09:35:44.600Z,26.53
2019-05-02T09:38:16.225Z,27.50
2019-05-02T09:40:47.154Z,22.20
2019-05-02T09:43:14.462Z,23.85
2019-05-02T09:45:44.036Z,26.27
2019-05-02T09:48:17.170Z,27.07
2019-05-02T09:50:43.647Z,28.53
2019-05-02T09:53:26.033Z,25.10
2019-05-02T09:56:10.153Z,25.57
2019-05-02T09:58:49.070Z,28.00
2019-05-02T10:01:26.959Z,27.30
2019-05-02T10:03:55.862Z,23.80
2019-05-02T10:06:24.806Z,26.57
2019-05-02T10:08:53.671Z,21.30
2019-05-02T10:11:26.036Z,25.77
2019-05-02T10:13:55.422Z,22.55
2019-05-02T10:16:27.158Z,24.77
2019-05-02T10:18:53.921Z,24.20
2019-05-02T10:21:22.983Z,24.23
2019-05-02T10:23:59.081Z,23.20
2019-05-02T10:26:24.465Z,21.93
2019-05-02T10:28:53.435Z,18.33
2019-05-02T10:31:27.644Z,21.90
2019-05-02T10:33:55.090Z,19.07
2019-05-02T10:36:24.121Z,23.43
2019-05-02T10:38:54.953Z,16.23
2019-05-02T10:41:24.681Z,19.33
2019-05-02T10:43:56.689Z,18.73
2019-05-02T10:46:41.737Z,16.43
2019-05-02T10:49:18.396Z,18.10
2019-05-02T10:51:49.569Z,19.45
2019-05-02T10:54:20.512Z,17.50
2019-05-02T10:56:48.142Z,21.27
2019-05-02T10:59:17.087Z,19.63
2019-05-02T11:01:49.860Z,20.10
2019-05-02T11:04:18.661Z,21.07
2019-05-02T11:06:47.511Z,25.77
2019-05-02T11:09:16.691Z,27.07
2019-05-02T11:11:47.005Z,25.80
2019-05-02T11:14:24.571Z,28.45
2019-05-02T11:16:58.107Z,30.30
2019-05-02T11:19:28.524Z,28.77
2019-05-02T11:21:59.104Z,30.10
2019-05-02T11:24:28.498Z,30.03
2019-05-02T11:26:57.867Z,28.70
2019-05-02T11:29:27.140Z,29.67
2019-05-02T11:32:02.783Z,29.90
2019-05-02T11:34:32.671Z,30.70
2019-05-02T11:37:01.820Z,34.80
2019-05-02T11:39:37.741Z,30.47
2019-05-02T11:42:02.123Z,35.47
2019-05-02T11:44:32.648Z,37.00
2019-05-02T11:47:02.090Z,38.50
2019-05-02T11:49:31.990Z,37.00
2019-05-02T11:52:04.348Z,38.70
2019-05-02T11:54:31.964Z,37.40
2019-05-02T11:57:02.276Z,38.03
2019-05-02T11:59:31.984Z,38.77
2019-05-02T12:02:09.326Z,39.00
2019-05-02T12:04:38.787Z,39.00
2019-05-02T12:07:07.583Z,39.30
2019-05-02T12:09:36.337Z,37.10
2019-05-02T12:12:05.503Z,36.98
2019-05-02T12:14:36.393Z,38.60
2019-05-02T12:17:05.233Z,34.15
2019-05-02T12:19:34.017Z,39.93
2019-05-02T12:22:07.205Z,36.30
2019-05-02T12:24:36.485Z,38.13
2019-05-02T12:27:05.171Z,36.70
2019-05-02T12:29:33.973Z,34.90
2019-05-02T12:32:02.769Z,33.93
2019-05-02T12:34:32.530Z,28.10
2019-05-02T12:37:01.807Z,30.57
2019-05-02T12:39:31.660Z,27.90
2019-05-02T12:42:02.643Z,29.60
2019-05-02T12:44:31.846Z,26.07
2019-05-02T12:47:02.486Z,30.37
2019-05-02T12:49:32.475Z,30.97
2019-05-02T12:52:01.820Z,29.30
2019-05-02T12:54:32.421Z,27.37
2019-05-02T12:57:02.055Z,27.10
2019-05-02T12:59:32.227Z,28.53
2019-05-02T13:02:02.663Z,27.83
2019-05-02T13:04:32.257Z,29.10
2019-05-02T13:07:02.155Z,27.80
2019-05-02T13:09:32.570Z,28.77
2019-05-02T13:12:03.192Z,26.60
2019-05-02T13:14:32.131Z,29.07
2019-05-02T13:17:05.233Z,29.50
2019-05-02T13:19:40.141Z,28.20
2019-05-02T13:22:06.719Z,28.10
2019-05-02T13:24:37.071Z,26.87
2019-05-02T13:27:08.737Z,26.70
2019-05-02T13:29:37.762Z,26.93
2019-05-02T13:32:08.785Z,24.77
2019-05-02T13:34:48.282Z,24.43
2019-05-02T13:37:15.770Z,24.23
2019-05-02T13:40:02.522Z,25.80
2019-05-02T13:42:33.583Z,24.20
2019-05-02T13:45:03.733Z,22.20
2019-05-02T13:47:32.969Z,22.90
2019-05-02T13:50:03.887Z,23.37
2019-05-02T13:52:34.397Z,19.00
2019-05-02T13:55:04.783Z,20.50
2019-05-02T13:57:34.921Z,19.93
2019-05-02T14:00:05.725Z,19.10
2019-05-02T14:02:37.459Z,17.13
2019-05-02T14:05:08.609Z,18.93
2019-05-02T14:07:37.599Z,21.73
2019-05-02T14:10:25.237Z,17.63
2019-05-02T14:12:55.699Z,20.27
2019-05-02T14:15:26.022Z,19.00
2019-05-02T14:17:54.769Z,15.87
2019-05-02T14:20:24.343Z,15.23
2019-05-02T14:22:53.184Z,17.23
2019-05-02T14:25:22.633Z,15.90
2019-05-02T14:27:55.336Z,16.60
2019-05-02T14:30:35.966Z,16.82
2019-05-02T14:32:54.375Z,13.70
2019-05-02T14:35:28.401Z,14.70
2019-05-02T14:38:10.138Z,16.60
2019-05-02T14:40:58.411Z,14.73
2019-05-02T14:43:48.007Z,13.30
2019-05-02T14:46:17.827Z,12.60
2019-05-02T14:48:46.473Z,13.73
2019-05-02T14:51:16.783Z,12.27
2019-05-02T14:53:45.792Z,10.47
2019-05-02T14:56:16.105Z,12.40
2019-05-02T14:58:44.908Z,10.97
2019-05-02T15:01:17.162Z,12.10
2019-05-02T15:03:44.171Z,11.77
2019-05-02T15:06:12.996Z,12.35
2019-05-02T15:08:44.725Z,11.50
2019-05-02T15:11:12.595Z,11.70
2019-05-02T15:13:43.595Z,10.63
2019-05-02T15:16:17.810Z,11.90
2019-05-02T15:18:42.418Z,12.70
2019-05-02T15:21:16.330Z,12.93
2019-05-02T15:23:43.283Z,12.07
2019-05-02T15:26:14.048Z,11.27
2019-05-02T15:28:42.549Z,12.43
2019-05-02T15:31:28.473Z,11.30
2019-05-02T15:34:01.537Z,11.17
2019-05-02T15:36:28.005Z,10.13
2019-05-02T15:38:56.748Z,9.73
2019-05-02T15:41:25.531Z,11.20
2019-05-02T15:43:54.334Z,10.67
2019-05-02T15:46:28.146Z,8.87
2019-05-02T15:48:57.262Z,9.00
2019-05-02T15:51:24.820Z,8.33
2019-05-02T15:54:06.123Z,7.70
2019-05-02T15:56:28.350Z,7.70
2019-05-02T15:59:02.421Z,8.10
2019-05-02T16:01:36.587Z,5.47
2019-05-02T16:04:07.034Z,6.12
2019-05-02T16:06:35.795Z,5.70
2019-05-02T16:09:07.071Z,5.73
2019-05-02T16:11:38.797Z,5.90
2019-05-02T16:14:12.798Z,4.50
2019-05-02T16:16:45.114Z,4.58
2019-05-02T16:19:14.916Z,3.70
2019-05-02T16:21:52.054Z,4.53
2019-05-02T16:24:22.903Z,4.40
2019-05-02T16:26:56.629Z,4.97
2019-05-02T16:29:34.898Z,5.70
2019-05-02T16:32:08.466Z,5.50
2019-05-02T16:34:54.753Z,5.80
2019-05-02T16:37:23.776Z,6.13
2019-05-02T16:39:52.681Z,6.50
2019-05-02T16:42:23.394Z,5.87
2019-05-02T16:44:54.777Z,5.70
2019-05-02T16:47:24.647Z,6.00
2019-05-02T16:50:04.515Z,4.53
2019-05-02T16:52:38.257Z,5.13
2019-05-02T16:55:07.501Z,5.13
2019-05-02T16:57:37.567Z,4.70
2019-05-02T17:00:12.816Z,4.30
2019-05-02T17:02:46.448Z,4.10
2019-05-02T17:05:16.586Z,3.60
2019-05-02T17:07:53.044Z,3.40
2019-05-02T17:10:32.198Z,3.63
2019-05-02T17:13:06.150Z,3.17
2019-05-02T17:15:38.455Z,2.80
2019-05-02T17:18:18.076Z,2.67
2019-05-02T17:20:38.347Z,2.77
2019-05-02T17:23:07.977Z,3.20
2019-05-02T17:25:36.812Z,2.40
2019-05-02T17:28:10.021Z,2.90
2019-05-02T17:30:39.432Z,2.67
2019-05-02T17:33:14.346Z,2.63
2019-05-02T17:35:48.797Z,2.60
2019-05-02T17:38:12.190Z,2.57
2019-05-02T17:40:42.184Z,3.03
2019-05-02T17:43:12.079Z,2.55
2019-05-02T17:45:42.330Z,2.13
2019-05-02T17:48:16.203Z,2.20
2019-05-02T17:50:49.342Z,1.77
2019-05-02T17:53:19.734Z,1.27
2019-05-02T17:55:52.629Z,1.47
2019-05-02T17:58:22.085Z,1.93
2019-05-02T18:00:57.210Z,1.60
2019-05-02T18:03:35.343Z,1.13
2019-05-02T18:06:13.256Z,1.47
2019-05-02T18:08:46.308Z,1.37
2019-05-02T18:11:17.242Z,1.37
2019-05-02T18:13:51.815Z,1.90
2019-05-02T18:16:24.136Z,1.60
2019-05-02T18:18:53.745Z,1.57
2019-05-02T18:21:28.928Z,1.25
2019-05-02T18:24:06.074Z,1.30
2019-05-02T18:26:34.148Z,1.50
2019-05-02T18:29:15.264Z,1.83
2019-05-02T18:31:47.333Z,1.47
2019-05-02T18:34:22.756Z,1.67
2019-05-02T18:36:47.494Z,1.40
2019-05-02T18:39:34.903Z,1.40
2019-05-02T18:41:55.095Z,1.30
2019-05-02T18:44:24.864Z,1.83
2019-05-02T18:47:02.307Z,1.30
2019-05-02T18:49:32.146Z,1.47
2019-05-02T18:52:01.929Z,1.60
2019-05-02T18:54:33.798Z,1.03
2019-05-02T18:57:09.356Z,1.67
2019-05-02T18:59:38.640Z,1.43
2019-05-02T19:02:07.796Z,1.40
2019-05-02T19:04:39.726Z,1.83
2019-05-02T19:07:14.286Z,2.20
2019-05-02T19:09:48.455Z,1.30
2019-05-02T19:12:21.517Z,1.65
2019-05-02T19:14:42.099Z,1.93
2019-05-02T19:17:12.246Z,1.80
2019-05-02T19:19:41.919Z,1.97
2019-05-02T19:22:13.217Z,2.17
2019-05-02T19:24:45.185Z,2.63
2019-05-02T19:27:15.672Z,2.50
2019-05-02T19:29:48.107Z,3.93
2019-05-02T19:32:17.042Z,3.57
2019-05-02T19:34:46.858Z,2.90
2019-05-02T19:37:17.731Z,3.90
2019-05-02T19:39:48.703Z,3.70
2019-05-02T19:42:22.660Z,3.67
2019-05-02T19:44:50.363Z,2.80
2019-05-02T19:47:19.590Z,2.60
2019-05-02T19:49:52.725Z,2.70
2019-05-02T19:52:34.386Z,3.03
2019-05-02T19:55:14.019Z,2.70
2019-05-02T19:57:38.129Z,3.13
2019-05-02T20:00:07.905Z,3.72
2019-05-02T20:02:37.613Z,3.00
2019-05-02T20:05:09.214Z,3.40
2019-05-02T20:07:38.608Z,2.90
2019-05-02T20:10:08.630Z,2.60
2019-05-02T20:12:42.432Z,3.80
2019-05-02T20:15:11.997Z,2.93
2019-05-02T20:17:41.669Z,3.30
2019-05-02T20:20:21.664Z,3.75
2019-05-02T20:22:52.354Z,5.43
2019-05-02T20:25:22.780Z,4.90
2019-05-02T20:27:52.581Z,3.83
2019-05-02T20:30:22.510Z,4.08
2019-05-02T20:32:51.785Z,3.50
2019-05-02T20:35:22.586Z,4.27
2019-05-02T20:37:52.572Z,3.10
2019-05-02T20:40:31.658Z,3.10
2019-05-02T20:43:00.099Z,4.50
2019-05-02T20:45:29.005Z,4.20
2019-05-02T20:47:57.963Z,4.20
2019-05-02T20:50:26.736Z,4.30
2019-05-02T20:52:56.580Z,3.97
2019-05-02T20:55:26.583Z,3.70
2019-05-02T20:57:56.453Z,3.70
2019-05-02T21:00:32.261Z,4.00
2019-05-02T21:03:02.683Z,4.10
2019-05-02T21:05:36.731Z,4.30
2019-05-02T21:08:08.298Z,3.80
2019-05-02T21:10:41.629Z,3.83
2019-05-02T21:13:12.678Z,4.00
2019-05-02T21:15:42.327Z,4.40
2019-05-02T21:18:12.066Z,5.05
2019-05-02T21:20:41.908Z,4.43
2019-05-02T21:23:11.715Z,4.30
2019-05-02T21:25:41.750Z,5.17
2019-05-02T21:28:11.980Z,5.75
2019-05-02T21:30:41.780Z,6.20
2019-05-02T21:33:32.106Z,5.60
2019-05-02T21:36:01.223Z,4.75
2019-05-02T21:38:31.830Z,5.20
2019-05-02T21:41:00.449Z,4.40
2019-05-02T21:43:29.258Z,5.43
2019-05-02T21:45:58.109Z,4.80
2019-05-02T21:48:28.190Z,5.40
2019-05-02T21:51:02.573Z,6.87
2019-05-02T21:53:55.415Z,5.30
2019-05-02T21:56:24.223Z,5.37
2019-05-02T21:59:06.053Z,4.37
2019-05-02T22:01:38.138Z,4.57
2019-05-02T22:04:06.977Z,5.33
2019-05-02T22:06:35.830Z,4.97
2019-05-02T22:09:07.737Z,6.00
2019-05-02T22:11:36.943Z,5.80
2019-05-02T22:14:06.382Z,5.10
2019-05-02T22:16:35.429Z,5.47
2019-05-02T22:19:05.500Z,6.60
2019-05-02T22:21:35.182Z,7.03
2019-05-02T22:24:11.200Z,6.00
2019-05-02T22:26:35.947Z,6.13
2019-05-02T22:29:05.699Z,6.83
2019-05-02T22:31:34.533Z,7.87
2019-05-02T22:34:03.338Z,6.67
2019-05-02T22:36:32.766Z,7.20
2019-05-02T22:39:19.207Z,6.43
2019-05-02T22:41:48.212Z,7.27
2019-05-02T22:44:16.952Z,6.40
2019-05-02T22:46:46.316Z,6.40
2019-05-02T22:49:15.443Z,6.90
2019-05-02T22:51:44.478Z,6.03
2019-05-02T22:54:24.154Z,6.53
2019-05-02T22:56:44.128Z,6.40
2019-05-02T22:59:12.892Z,6.23
2019-05-02T23:01:42.328Z,6.70
2019-05-02T23:04:12.828Z,5.90
2019-05-02T23:06:43.927Z,6.03
2019-05-02T23:09:12.875Z,5.90
2019-05-02T23:11:42.581Z,5.77
2019-05-02T23:14:11.628Z,5.60
2019-05-02T23:16:42.766Z,5.43
2019-05-02T23:19:12.266Z,6.00
2019-05-02T23:21:42.321Z,6.23
2019-05-02T23:24:14.665Z,6.00
2019-05-02T23:26:45.089Z,5.40
2019-05-02T23:29:15.427Z,5.42
2019-05-02T23:31:44.216Z,6.33
2019-05-02T23:34:13.122Z,5.53
2019-05-02T23:36:42.076Z,5.40
2019-05-02T23:39:12.505Z,5.35
2019-05-02T23:41:42.122Z,5.20
2019-05-02T23:44:12.295Z,5.37
2019-05-02T23:46:42.433Z,5.57
2019-05-02T23:49:12.694Z,5.62
2019-05-02T23:51:42.651Z,4.53
2019-05-02T23:54:12.907Z,4.63
2019-05-02T23:56:47.498Z,5.87
2019-05-02T23:59:16.282Z,5.00
